This is the latest recevied weather packets stored in our database for station/object E20TWR-1. If no packets are shown the sender has not sent any weather packets the latest 10 day(s).
| Time | Temp. | Humidity | Pressure | Rain* | Wind** | Luminosity | Snow |
|---|---|---|---|---|---|---|---|
| 1777341609 | 37.22° C | 46% | 1009 hPa | - | - | 0 W/m² | - |
| 1777340983 | 37.22° C | 46% | 1009 hPa | - | - | 0 W/m² | - |
| 1777340357 | 37.22° C | 46% | 1009 hPa | - | - | 0 W/m² | - |
| 1777339732 | 37.22° C | 47% | 1009 hPa | - | - | 0 W/m² | - |
| 1777339105 | 37.22° C | 47% | 1009 hPa | - | - | 0 W/m² | - |
| 1777338480 | 37.22° C | 47% | 1009 hPa | - | - | 0 W/m² | - |
| 1777337854 | 37.22° C | 47% | 1009 hPa | - | - | 0 W/m² | - |
| 1777337229 | 37.22° C | 46% | 1009 hPa | - | - | 0 W/m² | - |
| 1777336604 | 37.22° C | 46% | 1009 hPa | - | - | 0 W/m² | - |
| 1777335978 | 37.22° C | 46% | 1009 hPa | - | - | 0 W/m² | - |
| 1777335352 | 37.22° C | 46% | 1008 hPa | - | - | 0 W/m² | - |
| 1777334726 | 37.22° C | 45% | 1008 hPa | - | - | 0 W/m² | - |
| 1777334101 | 37.22° C | 44% | 1008 hPa | - | - | 0 W/m² | - |
| 1777333475 | 37.22° C | 43% | 1008 hPa | - | - | 0 W/m² | - |
| 1777332849 | 37.22° C | 45% | 1008 hPa | - | - | 0 W/m² | - |
| 1777332223 | 37.22° C | 45% | 1008 hPa | - | - | 0 W/m² | - |
| 1777331598 | 37.22° C | 46% | 1008 hPa | - | - | 0 W/m² | - |
| 1777330972 | 36.67° C | 47% | 1008 hPa | - | - | 0 W/m² | - |
| 1777330347 | 36.11° C | 48% | 1007 hPa | - | - | 0 W/m² | - |
| 1777329721 | 36.11° C | 47% | 1007 hPa | - | - | 0 W/m² | - |
| 1777329095 | 36.67° C | 46% | 1007 hPa | - | - | 0 W/m² | - |
| 1777328470 | 36.11° C | 47% | 1007 hPa | - | - | 0 W/m² | - |
| 1777327843 | 35° C | 49% | 1007 hPa | - | - | 0 W/m² | - |
| 1777327217 | 33.33° C | 52% | 1007 hPa | - | - | 0 W/m² | - |
| 1777326591 | 31.67° C | 56% | 1007 hPa | - | - | 0 W/m² | - |
* Rain since midnight (hover to see other rain measurements)
** Current wind speed in m/s (hover to see current wind gust speed)